D/T METAR WX W/DIR W/SPE G/SPE TEMP DEWP
5/06/20 05:50 EGQL 050450Z 27007KT CAVOK 07/03 Q0995 BLU W (270°) 8.1mph 7°C 3°C
5/06/20 04:50 EGQL 050350Z 30006KT CAVOK 06/03 Q0995 BLU WNW (300°) 6.9mph 6°C 3°C
5/06/20 03:50 EGQL 050250Z 30004KT CAVOK 06/03 Q0996 BLU WNW (300°) 4.6mph 6°C 3°C
5/06/20 02:50 EGQL 050150Z 31005KT CAVOK 07/03 Q0996 BLU NW (310°) 5.8mph 7°C 3°C
5/06/20 01:50 EGQL 050050Z 03002KT CAVOK 05/04 Q0997 BLU NNE (30°) 2.3mph 5°C 4°C
5/06/20 00:50 EGQL 042350Z 31003KT CAVOK 07/06 Q0998 BLU NW (310°) 3.5mph 7°C 6°C
4/06/20 23:50 EGQL 042250Z 30003KT 9999 BKN036 07/06 Q0998 BLU WNW (300°) 3.5mph 7°C 6°C
4/06/20 22:50 EGQL 042150Z 28004KT CAVOK 07/06 Q0998 BLU W (280°) 4.6mph 7°C 6°C
4/06/20 21:50 EGQL 042050Z 27003KT CAVOK 08/07 Q0999 BLU W (270°) 3.5mph 8°C 7°C
4/06/20 20:50 EGQL 041950Z 35002KT CAVOK 09/06 Q0999 BLU N (350°) 2.3mph 9°C 6°C
4/06/20 19:50 EGQL 041850Z 08003KT 9999 FEW024 SCT045 BKN070 09/07 Q0999 BLU E (80°) 3.5mph 9°C 7°C
4/06/20 18:50 EGQL 041750Z 06007KT 9999 -DZ SCT036 BKN045 08/07 Q1000 BLU -DZ ENE (60°) 8.1mph 8°C 7°C
4/06/20 17:50 EGQL 041650Z 07012KT 9999 SCT016 BKN037 09/06 Q1000 RMK WHT ENE (70°) 13.8mph 9°C 6°C
4/06/20 16:50 EGQL 041550Z 09012KT 9999 FEW020 BKN032 10/06 Q1000 RMK BLU E (90°) 13.8mph 10°C 6°C
4/06/20 15:50 EGQL 041450Z 11011KT 9999 RA FEW027 BKN035 BKN045 10/06 Q1000 BLU RA ESE (110°) 12.7mph 10°C 6°C
4/06/20 14:50 EGQL 041350Z 14007KT 9999 RA BKN025 BKN045 11/07 Q1000 BLU RA SE (140°) 8.1mph 11°C 7°C
4/06/20 13:50 EGQL 041250Z 11009KT 9999 FEW024 SCT030 12/05 Q1001 BLU ESE (110°) 10.4mph 12°C 5°C
4/06/20 12:50 EGQL 041150Z AUTO 15005KT 9999 BKN033/// 12/06 Q1002 SSE (150°) 5.8mph 12°C 6°C
4/06/20 11:50 EGQL 041050Z 23004KT 9999 FEW023 BKN030 11/06 Q1002 RMK BLU SW (230°) 4.6mph 11°C 6°C
4/06/20 10:50 EGQL 040950Z 01003KT 9999 FEW040 BKN070 12/05 Q1003 RMK BLU N (10°) 3.5mph 12°C 5°C
4/06/20 09:50 EGQL 040850Z 29006KT 9999 FEW030 OVC070 11/05 Q1003 RMK BLU WNW (290°) 6.9mph 11°C 5°C
4/06/20 08:50 EGQL 040750Z 34005KT 9999 FEW037 BKN050 11/04 Q1004 RMK BLU NNW (340°) 5.8mph 11°C 4°C
4/06/20 07:52 EGQL 040652Z 32004KT 9999 FEW035 BKN080 10/04 Q1004 RMK BLU NW (320°) 4.6mph 10°C 4°C
4/06/20 06:50 EGQL 040550Z 22002KT CAVOK 09/05 Q1005 BLU SW (220°) 2.3mph 9°C 5°C
4/06/20 05:50 EGQL 040450Z 26002KT CAVOK 08/06 Q1006 BLU W (260°) 2.3mph 8°C 6°C
4/06/20 04:50 EGQL 040350Z 28004KT CAVOK 07/05 Q1006 BLU W (280°) 4.6mph 7°C 5°C
4/06/20 03:50 EGQL 040250Z 27004KT CAVOK 07/05 Q1008 BLU W (270°) 4.6mph 7°C 5°C
4/06/20 02:50 EGQL 040150Z 26005KT 9999 BKN042 07/05 Q1009 BLU W (260°) 5.8mph 7°C 5°C
4/06/20 01:50 EGQL 040050Z 23002KT CAVOK 06/04 Q1009 BLU SW (230°) 2.3mph 6°C 4°C
4/06/20 00:50 EGQL 032350Z 30003KT 9999 FEW045 BKN190 06/04 Q1010 BLU WNW (300°) 3.5mph 6°C 4°C
3/06/20 23:50 EGQL 032250Z 26004KT CAVOK 06/04 Q1011 BLU W (260°) 4.6mph 6°C 4°C
3/06/20 22:50 EGQL 032150Z 28001KT CAVOK 08/04 Q1012 BLU W (280°) 1.2mph 8°C 4°C
3/06/20 21:50 EGQL 032050Z 03004KT CAVOK 10/05 Q1012 BLU NNE (30°) 4.6mph 10°C 5°C
3/06/20 20:50 EGQL 031950Z 05007KT CAVOK 10/04 Q1012 BLU NE (50°) 8.1mph 10°C 4°C
3/06/20 19:50 EGQL 031850Z 05007KT CAVOK 12/05 Q1013 BLU NE (50°) 8.1mph 12°C 5°C
3/06/20 18:50 EGQL 031750Z 04010KT CAVOK 12/05 Q1013 BLU NE (40°) 11.5mph 12°C 5°C
3/06/20 17:50 EGQL 031650Z 03016KT 9999 BKN049 13/05 Q1014 RMK BLU NNE (30°) 18.4mph 13°C 5°C
3/06/20 16:50 EGQL 031550Z 03010KT 9999 SCT033 BKN041 13/06 Q1014 BLU NNE (30°) 11.5mph 13°C 6°C
3/06/20 15:50 EGQL 031450Z 01013KT 9999 BKN035 BKN050 14/06 Q1014 BLU N (10°) 15.0mph 14°C 6°C
3/06/20 14:50 EGQL 031350Z 01013KT 9999 BKN033 SCT041 BKN070 13/06 Q1015 BLU N (10°) 15.0mph 13°C 6°C
3/06/20 13:50 EGQL 031250Z 01014KT 9999 SCT035 BKN070 14/05 Q1015 BLU N (10°) 16.1mph 14°C 5°C
3/06/20 12:50 EGQL 031150Z AUTO 36011KT 9999 BKN035/// BKN046/// 13/06 Q1015 N (360°) 12.7mph 13°C 6°C
3/06/20 11:50 EGQL 031050Z 03011KT 9999 BKN035 12/05 Q1016 RMK BLU NNE (30°) 12.7mph 12°C 5°C
3/06/20 09:50 EGQL 030850Z 04013KT 9999 BKN035 SCT044 13/05 Q1016 RMK BLU NE (40°) 15.0mph 13°C 5°C
3/06/20 08:50 EGQL 030750Z 03011KT 9999 FEW024 BKN033 11/05 Q1016 RMK BLU NNE (30°) 12.7mph 11°C 5°C
3/06/20 07:50 EGQL 030650Z 02011KT 9999 BKN033 10/05 Q1016 RMK BLU NNE (20°) 12.7mph 10°C 5°C
3/06/20 06:50 EGQL 030550Z 04006KT 9999 FEW023 SCT030 10/06 Q1017 BLU NE (40°) 6.9mph 10°C 6°C
3/06/20 05:50 EGQL 030450Z 03008KT 9999 FEW024 BKN210 09/06 Q1017 BLU NNE (30°) 9.2mph 9°C 6°C
3/06/20 04:50 EGQL 030350Z 03006KT 9999 SCT031 SCT080 BKN120 09/07 Q1017 BLU NNE (30°) 6.9mph 9°C 7°C
3/06/20 03:50 EGQL 030250Z 03009KT 9999 BKN021 SCT060 BKN080 09/07 Q1016 WHT NNE (30°) 10.4mph 9°C 7°C
3/06/20 02:50 EGQL 030150Z 03006KT CAVOK 09/08 Q1017 BLU NNE (30°) 6.9mph 9°C 8°C
3/06/20 01:50 EGQL 030050Z 03006KT 9999 -RA BKN041 09/08 Q1017 BLU -RA NNE (30°) 6.9mph 9°C 8°C
3/06/20 00:50 EGQL 022350Z 04006KT 9999 -RA FEW015 BKN034 09/08 Q1017 BLU -RA NE (40°) 6.9mph 9°C 8°C
2/06/20 23:50 EGQL 022250Z 04007KT 7000 RA FEW007 BKN037 10/09 Q1017 WHT RA NE (40°) 8.1mph 10°C 9°C
2/06/20 22:50 EGQL 022150Z 05005KT 4600 RA BKN005 SCT014 11/10 Q1017 YLO1 RA NE (50°) 5.8mph 11°C 10°C
2/06/20 21:50 EGQL 022050Z 07010KT 5000 RA BKN006 SCT027 11/11 Q1017 YLO1 RA ENE (70°) 11.5mph 11°C 11°C
2/06/20 20:50 EGQL 021950Z 08010KT 9999 -RA FEW007 SCT025 BKN070 12/11 Q1017 BLU -RA E (80°) 11.5mph 12°C 11°C
2/06/20 19:50 EGQL 021850Z 10012KT 9999 -RA FEW008 OVC070 12/11 Q1017 BLU -RA E (100°) 13.8mph 12°C 11°C
2/06/20 18:50 EGQL 021750Z 10011KT 9999 -RA FEW012 BKN070 13/12 Q1017 BLU -RA E (100°) 12.7mph 13°C 12°C
2/06/20 17:50 EGQL 021650Z 08007KT 9999 -RA OVC070 13/12 Q1018 BLU -RA E (80°) 8.1mph 13°C 12°C
2/06/20 16:50 EGQL 021550Z 06006KT CAVOK 14/11 Q1018 BLU ENE (60°) 6.9mph 14°C 11°C
2/06/20 15:50 EGQL 021450Z 07007KT 9999 -RA FEW030 BKN080 15/11 Q1018 BLU -RA ENE (70°) 8.1mph 15°C 11°C
2/06/20 14:50 EGQL 021350Z 07007KT CAVOK 16/11 Q1018 BLU ENE (70°) 8.1mph 16°C 11°C
2/06/20 14:03 EGQL 021303Z 06009KT 9999 -RA OVC080 16/12 Q1018 BLU -RA ENE (60°) 10.4mph 16°C 12°C
2/06/20 12:50 EGQL 021150Z 10003KT CAVOK 22/10 Q1018 BLU E (100°) 3.5mph 22°C 10°C
2/06/20 11:50 EGQL 021050Z 34006KT CAVOK 22/08 Q1019 BLU NNW (340°) 6.9mph 22°C 8°C
2/06/20 10:50 EGQL 020950Z 29005KT CAVOK 21/09 Q1020 BLU WNW (290°) 5.8mph 21°C 9°C
2/06/20 09:50 EGQL 020850Z 25003KT CAVOK 20/10 Q1020 BLU WSW (250°) 3.5mph 20°C 10°C
2/06/20 08:50 EGQL 020750Z 22004KT CAVOK 18/10 Q1021 BLU SW (220°) 4.6mph 18°C 10°C
2/06/20 07:50 EGQL 020650Z 24006KT CAVOK 14/10 Q1021 BLU WSW (240°) 6.9mph 14°C 10°C
2/06/20 06:50 EGQL 020550Z 26006KT CAVOK 13/10 Q1022 BLU W (260°) 6.9mph 13°C 10°C
2/06/20 05:50 EGQL 020450Z 26004KT CAVOK 11/09 Q1022 BLU W (260°) 4.6mph 11°C 9°C
2/06/20 04:50 EGQL 020350Z 24003KT CAVOK 11/10 Q1022 BLU WSW (240°) 3.5mph 11°C 10°C
2/06/20 03:50 EGQL 020250Z 27004KT CAVOK 10/09 Q1023 BLU W (270°) 4.6mph 10°C 9°C
2/06/20 02:50 EGQL 020150Z 26003KT CAVOK 09/09 Q1023 BLU W (260°) 3.5mph 9°C 9°C
2/06/20 01:50 EGQL 020050Z 30002KT CAVOK 10/10 Q1024 BLU WNW (300°) 2.3mph 10°C 10°C
2/06/20 00:50 EGQL 012350Z 36004KT CAVOK 11/10 Q1024 BLU N (360°) 4.6mph 11°C 10°C
1/06/20 23:50 EGQL 012250Z 35003KT CAVOK 11/10 Q1024 BLU N (350°) 3.5mph 11°C 10°C
1/06/20 22:50 EGQL 012150Z 03004KT CAVOK 10/08 Q1025 BLU NNE (30°) 4.6mph 10°C 8°C
1/06/20 21:50 EGQL 012050Z 05003KT CAVOK 13/08 Q1025 BLU NE (50°) 3.5mph 13°C 8°C
1/06/20 20:50 EGQL 011950Z 13005KT CAVOK 17/07 Q1025 BLU SE (130°) 5.8mph 17°C 7°C
1/06/20 19:50 EGQL 011850Z 14008KT CAVOK 17/07 Q1025 BLU SE (140°) 9.2mph 17°C 7°C
1/06/20 18:50 EGQL 011750Z 14010KT CAVOK 19/07 Q1025 BLU SE (140°) 11.5mph 19°C 7°C
1/06/20 17:50 EGQL 011650Z 14010KT CAVOK 20/06 Q1025 BLU SE (140°) 11.5mph 20°C 6°C
1/06/20 16:50 EGQL 011550Z 15015KT CAVOK 21/07 Q1025 BLU SSE (150°) 17.3mph 21°C 7°C
1/06/20 15:50 EGQL 011450Z 13012KT CAVOK 21/07 Q1026 BLU SE (130°) 13.8mph 21°C 7°C
1/06/20 13:50 EGQL 011250Z 10012KT CAVOK 16/11 Q1027 BLU E (100°) 13.8mph 16°C 11°C
1/06/20 12:50 EGQL 011150Z AUTO 10011KT 9999 NCD 14/10 Q1027 E (100°) 12.7mph 14°C 10°C
1/06/20 11:50 EGQL 011050Z 11008KT 9999 1000S PRFG SKC 15/11 Q1027 AMB PRFG SA ESE (110°) 9.2mph 15°C 11°C
1/06/20 10:50 EGQL 010950Z 11009KT CAVOK 15/11 Q1027 BLU ESE (110°) 10.4mph 15°C 11°C
1/06/20 09:50 EGQL 010850Z 12006KT CAVOK 15/11 Q1027 BLU ESE (120°) 6.9mph 15°C 11°C
1/06/20 08:38 EGQL 010738Z 22002KT 9999 FEW010 14/10 Q1027 BLU SW (220°) 2.3mph 14°C 10°C
1/06/20 07:50 EGQL 010650Z 06002KT 9999 BKN006 12/10 Q1028 YLO1 ENE (60°) 2.3mph 12°C 10°C
1/06/20 06:50 EGQL 010550Z 21001KT 9999 OVC006 11/10 Q1028 YLO1 SSW (210°) 1.2mph 11°C 10°C
1/06/20 05:50 EGQL 010450Z 01002KT 9999 OVC006 11/10 Q1027 YLO1 N (10°) 2.3mph 11°C 10°C
1/06/20 04:50 EGQL 010350Z 12002KT 9999 OVC006 11/10 Q1027 YLO1 ESE (120°) 2.3mph 11°C 10°C